Terminal Aerodrome Forecast
Issued by NWS

Home | Current Version | Previous Version | Text Only | Print | Product List | Glossary On
Versions: 1 2 3 4 5 6 7 8 9 10 11 12 13
000
FTUS44 KBMX 012330
TAFMGM
TAF
KMGM 012330Z 0200/0224 01008KT P6SM VCSH FEW050 SCT250
     FM020200 06003KT P6SM SKC
     FM021500 06006KT P6SM SKC=

USA.gov is the U.S. government's official web portal to all federal, state and local government web resources and services.